createdAt,value
2023-05-14T00:03:17.088Z,100704.23
2023-05-14T00:07:21.249Z,100698.86
2023-05-14T00:11:24.113Z,100697.34
2023-05-14T00:15:27.201Z,100703.06
2023-05-14T00:19:29.997Z,100702.18
2023-05-14T00:23:32.754Z,100697.70
2023-05-14T00:27:37.653Z,100690.66
2023-05-14T00:31:43.787Z,100688.21
2023-05-14T00:35:46.690Z,100685.04
2023-05-14T00:40:13.101Z,100682.01
2023-05-14T00:44:15.895Z,100680.81
2023-05-14T00:48:20.033Z,100677.90
2023-05-14T00:52:22.835Z,100681.66
2023-05-14T00:56:27.562Z,100685.06
2023-05-14T01:00:30.320Z,100684.80
2023-05-14T01:04:35.088Z,100682.88
2023-05-14T01:09:02.061Z,100679.33
2023-05-14T01:13:58.992Z,100685.06
2023-05-14T01:18:13.940Z,100694.60
2023-05-14T01:22:16.840Z,100689.20
2023-05-14T01:26:20.948Z,100686.19
2023-05-14T01:30:33.132Z,100682.70
2023-05-14T01:34:37.822Z,100683.39
2023-05-14T01:38:45.667Z,100682.50
2023-05-14T01:43:49.121Z,100678.19
2023-05-14T01:47:52.563Z,100682.46
2023-05-14T01:51:58.646Z,100678.69
2023-05-14T01:56:01.766Z,100677.14
2023-05-14T02:00:05.258Z,100676.30
2023-05-14T02:05:01.480Z,100677.40
2023-05-14T02:09:05.472Z,100675.41
2023-05-14T02:13:09.625Z,100671.73
2023-05-14T02:17:15.862Z,100669.47
2023-05-14T02:21:18.583Z,100663.20
2023-05-14T02:25:21.301Z,100661.57
2023-05-14T02:29:26.300Z,100658.37
2023-05-14T02:33:29.097Z,100658.02
2023-05-14T02:37:31.802Z,100657.27
2023-05-14T02:41:34.645Z,100661.48
2023-05-14T02:45:37.536Z,100653.79
2023-05-14T02:49:40.405Z,100650.96
2023-05-14T02:53:43.222Z,100650.66
2023-05-14T02:57:46.724Z,100649.31
2023-05-14T03:02:39.693Z,100650.38
2023-05-14T03:06:43.145Z,100653.01
2023-05-14T03:10:50.143Z,100649.73
2023-05-14T03:14:52.928Z,100654.25
2023-05-14T03:18:55.812Z,100651.73
2023-05-14T03:46:18.861Z,100656.73
2023-05-14T03:50:25.799Z,100661.33
2023-05-14T03:54:28.789Z,100662.47
2023-05-14T03:58:31.529Z,100663.73
2023-05-14T04:02:34.417Z,100659.65
2023-05-14T04:06:37.336Z,100656.54
2023-05-14T04:10:40.182Z,100648.16
2023-05-14T04:14:42.974Z,100644.20
2023-05-14T04:18:46.082Z,100643.41
2023-05-14T04:22:48.922Z,100635.32
2023-05-14T04:26:51.675Z,100632.73
2023-05-14T04:30:54.595Z,100629.86
2023-05-14T04:34:57.380Z,100633.73
2023-05-14T04:39:00.076Z,100628.75
2023-05-14T04:43:03.088Z,100626.11
2023-05-14T04:47:06.964Z,100629.98
2023-05-14T04:51:10.138Z,100626.60
2023-05-14T04:55:12.889Z,100621.98
2023-05-14T04:59:19.340Z,100615.29
2023-05-14T05:03:22.205Z,100611.06
2023-05-14T05:08:19.318Z,100611.02
2023-05-14T05:17:53.595Z,100601.64
2023-05-14T05:21:56.465Z,100606.66
2023-05-14T05:25:59.148Z,100612.27
2023-05-14T05:30:02.372Z,100614.61
2023-05-14T05:35:03.531Z,100614.46
2023-05-14T05:39:06.265Z,100608.59
2023-05-14T05:43:08.950Z,100599.40
2023-05-14T05:47:11.701Z,100593.58
2023-05-14T05:51:14.729Z,100590.99
2023-05-14T05:55:17.599Z,100592.05
2023-05-14T05:59:20.334Z,100595.88
2023-05-14T07:30:22.908Z,100552.74
2023-05-14T07:34:43.764Z,100545.04
2023-05-14T07:38:46.539Z,100547.91
2023-05-14T07:43:18.988Z,100549.04
2023-05-14T07:47:20.520Z,100539.98
2023-05-14T07:51:30.003Z,100535.38
2023-05-14T07:55:31.389Z,100533.63
2023-05-14T07:59:32.967Z,100533.54
2023-05-14T08:03:36.339Z,100530.77
2023-05-14T08:07:38.016Z,100529.35
2023-05-14T08:11:39.464Z,100527.85
2023-05-14T08:15:41.213Z,100519.48
2023-05-14T08:19:43.010Z,100516.98
2023-05-14T08:23:46.142Z,100513.19
2023-05-14T08:27:47.732Z,100513.11
2023-05-14T08:32:40.146Z,100508.30
2023-05-14T08:36:41.903Z,100508.06
2023-05-14T08:40:54.758Z,100505.77
2023-05-14T08:45:07.889Z,100502.29
2023-05-14T08:49:52.018Z,100489.65
2023-05-14T08:53:53.469Z,100490.53
2023-05-14T08:57:56.262Z,100486.32
2023-05-14T09:02:04.687Z,100489.29
2023-05-14T09:06:10.654Z,100485.73
2023-05-14T09:10:12.382Z,100481.49
2023-05-14T09:14:16.851Z,100475.45
2023-05-14T09:18:18.514Z,100474.63
2023-05-14T09:22:21.820Z,100470.15
2023-05-14T09:26:37.872Z,100464.02
2023-05-14T09:30:39.422Z,100457.65
2023-05-14T09:35:18.815Z,100451.72
2023-05-14T09:39:21.993Z,100443.59
2023-05-14T09:43:23.381Z,100437.63
2023-05-14T09:47:32.933Z,100431.04
2023-05-14T09:51:38.404Z,100416.92
2023-05-14T09:55:45.268Z,100418.50
2023-05-14T09:59:46.980Z,100411.39
2023-05-14T10:03:50.478Z,100401.84
2023-05-14T10:07:57.655Z,100399.86
2023-05-14T10:12:05.531Z,100389.42
2023-05-14T10:16:21.425Z,100385.27
2023-05-14T10:20:26.310Z,100379.09
2023-05-14T10:24:29.885Z,100379.86
2023-05-14T10:28:35.383Z,100374.13
2023-05-14T10:32:41.279Z,100367.95
2023-05-14T10:37:02.359Z,100366.44
2023-05-14T10:41:07.510Z,100357.73
2023-05-14T10:45:15.392Z,100357.66
2023-05-14T10:49:25.777Z,100357.19
2023-05-14T10:53:37.650Z,100358.27
2023-05-14T10:57:43.004Z,100350.02
2023-05-14T11:01:45.729Z,100344.02
2023-05-14T11:05:48.709Z,100343.02
2023-05-14T11:10:07.797Z,100339.92
2023-05-14T11:14:12.652Z,100330.25
2023-05-14T11:18:30.139Z,100329.51
2023-05-14T11:22:35.705Z,100320.64
2023-05-14T11:26:37.865Z,100313.05
2023-05-14T11:30:40.542Z,100308.38
2023-05-14T11:34:50.297Z,100306.45
2023-05-14T11:38:52.687Z,100304.79
2023-05-14T11:42:55.445Z,100301.63
2023-05-14T11:46:59.211Z,100303.35
2023-05-14T11:51:01.362Z,100299.41
2023-05-14T11:55:04.257Z,100294.66
2023-05-14T12:03:33.330Z,100280.10
2023-05-14T12:07:35.483Z,100283.11
2023-05-14T12:11:41.546Z,100281.30
2023-05-14T12:16:01.901Z,100268.89
2023-05-14T12:20:03.678Z,100263.55
2023-05-14T12:24:13.521Z,100262.39
2023-05-14T12:28:16.410Z,100257.63
2023-05-14T12:32:37.224Z,100249.12
2023-05-14T12:36:38.627Z,100245.61
2023-05-14T12:40:40.071Z,100243.38
2023-05-14T12:44:41.929Z,100238.08
2023-05-14T12:48:43.266Z,100236.67
2023-05-14T12:52:45.849Z,100232.35
2023-05-14T12:56:47.283Z,100224.81
2023-05-14T13:01:40.099Z,100228.66
2023-05-14T13:05:41.588Z,100220.05
2023-05-14T13:09:42.976Z,100219.21
2023-05-14T13:13:44.354Z,100222.38
2023-05-14T13:17:45.748Z,100216.95
2023-05-14T13:21:47.680Z,100210.30
2023-05-14T13:25:50.015Z,100204.63
2023-05-14T13:29:52.141Z,100195.70
2023-05-14T13:33:53.505Z,100188.66
2023-05-14T13:37:55.742Z,100188.77
2023-05-14T13:41:57.439Z,100184.71
2023-05-14T13:45:59.193Z,100177.66
2023-05-14T13:50:07.353Z,100175.98
2023-05-14T13:54:08.853Z,100172.17
2023-05-14T13:58:10.430Z,100169.96
2023-05-14T14:40:49.350Z,100131.42
2023-05-14T14:44:50.961Z,100131.41
2023-05-14T14:48:52.321Z,100131.46
2023-05-14T14:52:54.159Z,100127.80
2023-05-14T14:57:24.161Z,100129.69
2023-05-14T15:01:33.274Z,100127.89
2023-05-14T15:05:34.834Z,100119.20
2023-05-14T15:09:36.245Z,100113.32
2023-05-14T15:13:39.465Z,100111.98
2023-05-14T15:18:31.021Z,100107.97
2023-05-14T15:22:32.816Z,100105.99
2023-05-14T15:26:34.229Z,100104.29
2023-05-14T15:31:01.933Z,100099.81
2023-05-14T15:35:03.603Z,100098.52
2023-05-14T15:39:10.786Z,100096.59
2023-05-14T15:43:12.147Z,100094.94
2023-05-14T15:47:14.924Z,100090.64
2023-05-14T15:51:16.252Z,100086.96
2023-05-14T15:55:21.884Z,100084.16
2023-05-14T15:59:23.927Z,100079.10
2023-05-14T16:03:25.416Z,100071.17
2023-05-14T16:07:27.087Z,100073.55
2023-05-14T16:11:29.579Z,100075.30
2023-05-14T16:15:43.783Z,100072.21
2023-05-14T16:19:45.159Z,100072.50
2023-05-14T16:23:46.534Z,100069.70
2023-05-14T16:27:48.223Z,100065.45
2023-05-14T16:32:05.106Z,100063.71
2023-05-14T16:36:06.656Z,100062.83
2023-05-14T16:40:11.697Z,100063.35
2023-05-14T16:45:15.037Z,100066.08
2023-05-14T16:49:16.529Z,100067.55
2023-05-14T17:02:50.090Z,100067.86
2023-05-14T17:11:44.973Z,100074.34
2023-05-14T17:15:46.090Z,100071.63
2023-05-14T17:24:06.998Z,100075.23
2023-05-14T17:28:08.385Z,100076.48
2023-05-14T17:32:09.986Z,100075.95
2023-05-14T17:36:20.222Z,100074.09
2023-05-14T17:40:21.569Z,100072.66
2023-05-14T17:44:22.913Z,100080.00
2023-05-14T17:48:24.465Z,100079.17
2023-05-14T17:52:31.303Z,100078.95
2023-05-14T17:56:32.961Z,100074.73
2023-05-14T18:00:34.450Z,100074.09
2023-05-14T18:04:35.971Z,100075.29
2023-05-14T18:08:39.354Z,100082.93
2023-05-14T18:12:41.073Z,100084.48
2023-05-14T18:16:42.830Z,100079.37
2023-05-14T18:20:44.278Z,100082.29
2023-05-14T18:24:45.672Z,100078.90
2023-05-14T18:28:47.549Z,100075.45
2023-05-14T18:32:49.320Z,100075.67
2023-05-14T18:36:50.889Z,100069.55
2023-05-14T18:40:57.559Z,100065.91
2023-05-14T18:44:58.911Z,100069.13
2023-05-14T18:49:00.250Z,100071.20
2023-05-14T19:16:33.745Z,100074.66
2023-05-14T19:21:00.648Z,100078.48
2023-05-14T19:25:02.188Z,100075.61
2023-05-14T19:29:03.916Z,100067.20
2023-05-14T19:33:05.393Z,100061.56
2023-05-14T19:37:06.949Z,100058.39
2023-05-14T19:41:08.703Z,100059.52
2023-05-14T19:45:10.927Z,100056.80
2023-05-14T19:49:12.386Z,100054.79
2023-05-14T19:53:13.936Z,100051.39
2023-05-14T19:57:15.340Z,100049.08
2023-05-14T20:01:16.771Z,100043.13
2023-05-14T20:05:18.161Z,100037.72
2023-05-14T20:09:19.822Z,100036.48
2023-05-14T20:13:23.142Z,100033.73
2023-05-14T20:17:25.980Z,100038.33
2023-05-14T20:21:45.592Z,100034.67
2023-05-14T20:25:47.156Z,100023.92
2023-05-14T20:29:50.671Z,100021.08
2023-05-14T20:33:57.167Z,100018.58
2023-05-14T20:37:58.916Z,100019.40
2023-05-14T20:42:06.517Z,100006.34
2023-05-14T20:46:08.531Z,99999.52
2023-05-14T20:50:39.189Z,99988.50
2023-05-14T20:54:41.365Z,99984.38
2023-05-14T20:59:42.941Z,99974.15
2023-05-14T21:03:44.581Z,99962.73
2023-05-14T21:07:57.399Z,99955.90
2023-05-14T21:11:59.317Z,99949.15
2023-05-14T21:16:01.459Z,99941.59
2023-05-14T21:20:03.745Z,99932.54
2023-05-14T21:24:07.067Z,99919.38
2023-05-14T21:28:09.002Z,99912.08
2023-05-14T21:32:10.814Z,99913.85
2023-05-14T21:36:12.982Z,99917.42
2023-05-14T21:40:15.799Z,99912.27
2023-05-14T21:44:17.727Z,99915.01
2023-05-14T21:48:20.084Z,99917.01
2023-05-14T21:52:21.932Z,99921.31
2023-05-14T21:56:23.983Z,99911.86
2023-05-14T22:00:26.180Z,99913.95
2023-05-14T22:04:28.488Z,99905.41
2023-05-14T22:08:30.690Z,99903.28
2023-05-14T22:12:36.328Z,99905.17
2023-05-14T22:16:38.632Z,99902.79
2023-05-14T22:20:42.168Z,99904.95
2023-05-14T22:24:43.985Z,99909.44
2023-05-14T22:28:45.836Z,99923.93
2023-05-14T22:32:47.834Z,99931.54
2023-05-14T22:36:49.784Z,99936.49
2023-05-14T22:40:51.718Z,99946.64
2023-05-14T22:44:53.596Z,99944.09
2023-05-14T22:48:55.362Z,99937.21
2023-05-14T22:52:57.230Z,99935.64
2023-05-14T22:56:59.164Z,99931.67
2023-05-14T23:01:00.973Z,99923.05
2023-05-14T23:05:02.896Z,99920.24
2023-05-14T23:09:04.688Z,99908.88
2023-05-14T23:13:06.525Z,99898.45
2023-05-14T23:17:08.518Z,99890.34
2023-05-14T23:21:12.122Z,99882.14
2023-05-14T23:25:14.103Z,99871.78
2023-05-14T23:29:16.127Z,99864.50
2023-05-14T23:33:18.453Z,99859.55
2023-05-14T23:37:20.319Z,99854.92
2023-05-14T23:41:22.261Z,99848.83
2023-05-14T23:45:24.643Z,99841.14
2023-05-14T23:49:26.803Z,99837.91
2023-05-14T23:53:28.601Z,99830.98
2023-05-14T23:57:30.709Z,99818.90
